sensor_id;sensor_type;location;lat;lon;timestamp;temperature;humidity
26378;DHT22;14078;50.974;6.786;2023-04-23T00:04:05;11.00;99.90
26378;DHT22;14078;50.974;6.786;2023-04-23T00:06:33;11.10;99.90
26378;DHT22;14078;50.974;6.786;2023-04-23T00:09:00;11.20;99.90
26378;DHT22;14078;50.974;6.786;2023-04-23T00:11:28;11.20;99.90
26378;DHT22;14078;50.974;6.786;2023-04-23T00:13:55;11.20;99.90
26378;DHT22;14078;50.974;6.786;2023-04-23T00:16:22;11.20;99.90
26378;DHT22;14078;50.974;6.786;2023-04-23T00:18:48;11.20;99.90
26378;DHT22;14078;50.974;6.786;2023-04-23T00:21:16;11.20;99.90
26378;DHT22;14078;50.974;6.786;2023-04-23T00:23:43;11.20;99.90
26378;DHT22;14078;50.974;6.786;2023-04-23T00:26:09;11.20;99.90
26378;DHT22;14078;50.974;6.786;2023-04-23T00:28:36;11.10;99.90
26378;DHT22;14078;50.974;6.786;2023-04-23T00:31:02;11.10;99.90
26378;DHT22;14078;50.974;6.786;2023-04-23T00:33:29;11.10;99.90
26378;DHT22;14078;50.974;6.786;2023-04-23T00:35:55;11.20;99.90
26378;DHT22;14078;50.974;6.786;2023-04-23T00:38:23;11.10;99.90
26378;DHT22;14078;50.974;6.786;2023-04-23T00:40:50;11.10;99.90
26378;DHT22;14078;50.974;6.786;2023-04-23T00:43:17;11.10;99.90
26378;DHT22;14078;50.974;6.786;2023-04-23T00:45:44;11.00;99.90
26378;DHT22;14078;50.974;6.786;2023-04-23T00:48:11;11.00;99.90
26378;DHT22;14078;50.974;6.786;2023-04-23T00:50:38;10.90;99.90
26378;DHT22;14078;50.974;6.786;2023-04-23T00:53:04;10.90;99.90
26378;DHT22;14078;50.974;6.786;2023-04-23T00:55:32;10.90;99.90
26378;DHT22;14078;50.974;6.786;2023-04-23T00:57:59;10.90;99.90
26378;DHT22;14078;50.974;6.786;2023-04-23T01:00:26;11.00;99.90
26378;DHT22;14078;50.974;6.786;2023-04-23T01:10:14;10.90;99.90
26378;DHT22;14078;50.974;6.786;2023-04-23T01:12:42;10.80;99.90
26378;DHT22;14078;50.974;6.786;2023-04-23T01:15:09;10.70;99.90
26378;DHT22;14078;50.974;6.786;2023-04-23T01:17:35;10.70;99.90
26378;DHT22;14078;50.974;6.786;2023-04-23T01:20:02;10.60;99.90
26378;DHT22;14078;50.974;6.786;2023-04-23T01:22:32;10.60;99.90
26378;DHT22;14078;50.974;6.786;2023-04-23T01:24:59;10.60;99.90
26378;DHT22;14078;50.974;6.786;2023-04-23T01:27:26;10.50;99.90
26378;DHT22;14078;50.974;6.786;2023-04-23T01:47:02;10.50;99.90
26378;DHT22;14078;50.974;6.786;2023-04-23T01:49:29;10.60;99.90
26378;DHT22;14078;50.974;6.786;2023-04-23T01:51:56;10.60;99.90
26378;DHT22;14078;50.974;6.786;2023-04-23T01:54:22;10.50;99.90
26378;DHT22;14078;50.974;6.786;2023-04-23T01:56:49;10.50;99.90
26378;DHT22;14078;50.974;6.786;2023-04-23T01:59:19;10.50;99.90
26378;DHT22;14078;50.974;6.786;2023-04-23T02:01:46;10.50;99.90
26378;DHT22;14078;50.974;6.786;2023-04-23T04:09:25;10.30;99.90
26378;DHT22;14078;50.974;6.786;2023-04-23T04:21:42;10.30;99.90
26378;DHT22;14078;50.974;6.786;2023-04-23T04:24:08;10.40;99.90
26378;DHT22;14078;50.974;6.786;2023-04-23T04:26:36;10.30;99.90
26378;DHT22;14078;50.974;6.786;2023-04-23T04:29:03;10.30;99.90
26378;DHT22;14078;50.974;6.786;2023-04-23T04:31:30;10.30;99.90
26378;DHT22;14078;50.974;6.786;2023-04-23T04:33:57;10.40;99.90
26378;DHT22;14078;50.974;6.786;2023-04-23T04:36:24;10.40;99.90
26378;DHT22;14078;50.974;6.786;2023-04-23T04:38:51;10.40;99.90
26378;DHT22;14078;50.974;6.786;2023-04-23T04:41:18;10.40;99.90
26378;DHT22;14078;50.974;6.786;2023-04-23T04:43:47;10.40;99.90
26378;DHT22;14078;50.974;6.786;2023-04-23T04:46:13;10.50;99.90
26378;DHT22;14078;50.974;6.786;2023-04-23T04:48:40;10.50;99.90
26378;DHT22;14078;50.974;6.786;2023-04-23T04:51:07;10.40;99.90
26378;DHT22;14078;50.974;6.786;2023-04-23T04:53:33;10.50;99.90
26378;DHT22;14078;50.974;6.786;2023-04-23T04:56:00;10.60;99.90
26378;DHT22;14078;50.974;6.786;2023-04-23T04:58:26;10.60;99.90
26378;DHT22;14078;50.974;6.786;2023-04-23T05:00:54;10.60;99.90
26378;DHT22;14078;50.974;6.786;2023-04-23T05:03:21;10.70;99.90
26378;DHT22;14078;50.974;6.786;2023-04-23T05:05:47;10.70;99.90
26378;DHT22;14078;50.974;6.786;2023-04-23T05:08:14;10.80;99.90
26378;DHT22;14078;50.974;6.786;2023-04-23T05:10:41;10.80;99.90
26378;DHT22;14078;50.974;6.786;2023-04-23T05:13:08;10.80;99.90
26378;DHT22;14078;50.974;6.786;2023-04-23T05:15:34;10.80;99.90
26378;DHT22;14078;50.974;6.786;2023-04-23T05:30:19;11.10;99.90
26378;DHT22;14078;50.974;6.786;2023-04-23T05:32:45;11.20;99.90
26378;DHT22;14078;50.974;6.786;2023-04-23T05:37:39;11.20;99.90
26378;DHT22;14078;50.974;6.786;2023-04-23T07:08:49;14.10;99.90
26378;DHT22;14078;50.974;6.786;2023-04-23T07:11:15;14.40;99.90
26378;DHT22;14078;50.974;6.786;2023-04-23T07:13:42;14.40;99.90
26378;DHT22;14078;50.974;6.786;2023-04-23T07:16:08;14.60;99.90
26378;DHT22;14078;50.974;6.786;2023-04-23T07:18:35;14.60;99.90
26378;DHT22;14078;50.974;6.786;2023-04-23T07:21:02;14.70;99.90
26378;DHT22;14078;50.974;6.786;2023-04-23T07:23:28;14.70;99.90
26378;DHT22;14078;50.974;6.786;2023-04-23T07:25:56;14.90;99.90
26378;DHT22;14078;50.974;6.786;2023-04-23T07:28:22;15.00;99.90
26378;DHT22;14078;50.974;6.786;2023-04-23T07:30:49;15.00;99.90
26378;DHT22;14078;50.974;6.786;2023-04-23T07:33:15;15.10;99.90
26378;DHT22;14078;50.974;6.786;2023-04-23T07:35:42;15.10;99.90
26378;DHT22;14078;50.974;6.786;2023-04-23T07:38:09;15.10;99.90
26378;DHT22;14078;50.974;6.786;2023-04-23T07:40:35;15.20;99.90
26378;DHT22;14078;50.974;6.786;2023-04-23T07:43:03;15.20;99.90
26378;DHT22;14078;50.974;6.786;2023-04-23T07:45:30;15.10;99.90
26378;DHT22;14078;50.974;6.786;2023-04-23T07:47:56;15.10;99.90
26378;DHT22;14078;50.974;6.786;2023-04-23T07:50:23;15.20;99.90
26378;DHT22;14078;50.974;6.786;2023-04-23T07:52:50;15.30;99.90
26378;DHT22;14078;50.974;6.786;2023-04-23T07:55:16;15.30;99.90
26378;DHT22;14078;50.974;6.786;2023-04-23T07:57:44;15.30;99.90
26378;DHT22;14078;50.974;6.786;2023-04-23T08:00:12;15.40;99.90
26378;DHT22;14078;50.974;6.786;2023-04-23T08:02:39;15.50;99.90
26378;DHT22;14078;50.974;6.786;2023-04-23T08:05:06;15.70;99.90
26378;DHT22;14078;50.974;6.786;2023-04-23T08:07:32;15.80;99.90
26378;DHT22;14078;50.974;6.786;2023-04-23T08:09:59;16.00;99.90
26378;DHT22;14078;50.974;6.786;2023-04-23T08:12:28;16.10;24.10
26378;DHT22;14078;50.974;6.786;2023-04-23T08:14:55;16.30;1.00
26378;DHT22;14078;50.974;6.786;2023-04-23T08:17:23;16.30;1.00
26378;DHT22;14078;50.974;6.786;2023-04-23T08:19:50;16.40;1.00
26378;DHT22;14078;50.974;6.786;2023-04-23T08:22:16;16.40;1.00
26378;DHT22;14078;50.974;6.786;2023-04-23T08:24:43;16.50;1.00
26378;DHT22;14078;50.974;6.786;2023-04-23T08:29:38;16.70;1.00
26378;DHT22;14078;50.974;6.786;2023-04-23T08:32:04;16.70;99.90
26378;DHT22;14078;50.974;6.786;2023-04-23T08:34:32;16.70;99.90
26378;DHT22;14078;50.974;6.786;2023-04-23T08:36:58;16.70;1.00
26378;DHT22;14078;50.974;6.786;2023-04-23T08:39:25;16.70;99.90
26378;DHT22;14078;50.974;6.786;2023-04-23T08:41:53;16.60;1.00
26378;DHT22;14078;50.974;6.786;2023-04-23T08:44:21;16.60;1.00
26378;DHT22;14078;50.974;6.786;2023-04-23T08:46:47;16.70;1.00
26378;DHT22;14078;50.974;6.786;2023-04-23T08:49:14;16.70;1.00
26378;DHT22;14078;50.974;6.786;2023-04-23T08:51:45;16.70;1.00
26378;DHT22;14078;50.974;6.786;2023-04-23T08:54:14;16.70;1.00
26378;DHT22;14078;50.974;6.786;2023-04-23T08:56:40;16.70;1.00
26378;DHT22;14078;50.974;6.786;2023-04-23T08:59:07;16.80;99.90
26378;DHT22;14078;50.974;6.786;2023-04-23T09:01:33;16.80;1.00
26378;DHT22;14078;50.974;6.786;2023-04-23T09:23:46;18.20;1.00
26378;DHT22;14078;50.974;6.786;2023-04-23T09:26:18;18.40;1.00
26378;DHT22;14078;50.974;6.786;2023-04-23T09:28:45;18.30;1.00
26378;DHT22;14078;50.974;6.786;2023-04-23T09:31:14;18.30;1.00
26378;DHT22;14078;50.974;6.786;2023-04-23T09:33:40;18.10;1.00
26378;DHT22;14078;50.974;6.786;2023-04-23T09:36:08;18.10;99.90
26378;DHT22;14078;50.974;6.786;2023-04-23T09:38:36;18.10;99.90
26378;DHT22;14078;50.974;6.786;2023-04-23T09:43:47;18.10;33.80
26378;DHT22;14078;50.974;6.786;2023-04-23T09:46:13;18.00;99.90
26378;DHT22;14078;50.974;6.786;2023-04-23T09:48:40;17.90;73.00
26378;DHT22;14078;50.974;6.786;2023-04-23T09:51:07;17.70;99.90
26378;DHT22;14078;50.974;6.786;2023-04-23T09:53:39;17.90;1.00
26378;DHT22;14078;50.974;6.786;2023-04-23T09:56:05;18.00;1.00
26378;DHT22;14078;50.974;6.786;2023-04-23T09:58:32;18.20;1.00
26378;DHT22;14078;50.974;6.786;2023-04-23T10:01:06;18.40;1.00
26378;DHT22;14078;50.974;6.786;2023-04-23T10:03:33;18.50;1.00
26378;DHT22;14078;50.974;6.786;2023-04-23T10:05:59;18.50;1.00
26378;DHT22;14078;50.974;6.786;2023-04-23T10:08:26;18.50;1.00
26378;DHT22;14078;50.974;6.786;2023-04-23T10:10:53;18.60;1.00
26378;DHT22;14078;50.974;6.786;2023-04-23T10:13:19;18.60;1.00
26378;DHT22;14078;50.974;6.786;2023-04-23T10:15:46;18.70;1.00
26378;DHT22;14078;50.974;6.786;2023-04-23T10:18:14;18.80;1.00
26378;DHT22;14078;50.974;6.786;2023-04-23T10:20:41;18.90;1.00
26378;DHT22;14078;50.974;6.786;2023-04-23T10:23:08;18.90;1.00
26378;DHT22;14078;50.974;6.786;2023-04-23T10:25:35;18.90;1.00
26378;DHT22;14078;50.974;6.786;2023-04-23T10:28:02;18.90;1.00
26378;DHT22;14078;50.974;6.786;2023-04-23T10:30:29;18.90;1.00
26378;DHT22;14078;50.974;6.786;2023-04-23T10:32:55;18.90;1.00
26378;DHT22;14078;50.974;6.786;2023-04-23T10:35:23;18.80;1.00
26378;DHT22;14078;50.974;6.786;2023-04-23T10:37:50;18.70;1.00
26378;DHT22;14078;50.974;6.786;2023-04-23T10:40:17;18.50;1.00
26378;DHT22;14078;50.974;6.786;2023-04-23T10:42:46;18.20;1.00
26378;DHT22;14078;50.974;6.786;2023-04-23T10:45:14;17.90;1.00
26378;DHT22;14078;50.974;6.786;2023-04-23T10:47:41;17.70;1.00
26378;DHT22;14078;50.974;6.786;2023-04-23T10:50:17;17.70;1.00
26378;DHT22;14078;50.974;6.786;2023-04-23T10:52:46;17.70;1.00
26378;DHT22;14078;50.974;6.786;2023-04-23T10:55:15;17.70;1.00
26378;DHT22;14078;50.974;6.786;2023-04-23T10:57:53;18.00;1.00
26378;DHT22;14078;50.974;6.786;2023-04-23T11:00:20;18.50;1.00
26378;DHT22;14078;50.974;6.786;2023-04-23T11:02:49;18.70;1.00
26378;DHT22;14078;50.974;6.786;2023-04-23T11:05:16;19.00;1.00
26378;DHT22;14078;50.974;6.786;2023-04-23T11:07:44;19.10;99.90
26378;DHT22;14078;50.974;6.786;2023-04-23T11:10:29;19.10;99.90
26378;DHT22;14078;50.974;6.786;2023-04-23T11:12:56;19.10;99.90
26378;DHT22;14078;50.974;6.786;2023-04-23T11:15:23;19.00;99.90
26378;DHT22;14078;50.974;6.786;2023-04-23T11:17:58;19.00;99.90
26378;DHT22;14078;50.974;6.786;2023-04-23T11:20:25;18.90;99.90
26378;DHT22;14078;50.974;6.786;2023-04-23T11:22:52;18.70;99.90
26378;DHT22;14078;50.974;6.786;2023-04-23T11:25:19;18.70;99.90
26378;DHT22;14078;50.974;6.786;2023-04-23T11:27:48;18.70;99.90
26378;DHT22;14078;50.974;6.786;2023-04-23T11:30:16;18.80;99.90
26378;DHT22;14078;50.974;6.786;2023-04-23T11:32:43;19.00;99.90
26378;DHT22;14078;50.974;6.786;2023-04-23T11:35:11;18.90;99.90
26378;DHT22;14078;50.974;6.786;2023-04-23T11:37:38;19.00;99.90
26378;DHT22;14078;50.974;6.786;2023-04-23T11:40:06;18.90;99.90
26378;DHT22;14078;50.974;6.786;2023-04-23T11:42:39;19.00;99.90
26378;DHT22;14078;50.974;6.786;2023-04-23T11:45:13;18.90;99.90
26378;DHT22;14078;50.974;6.786;2023-04-23T11:47:40;19.00;99.90
26378;DHT22;14078;50.974;6.786;2023-04-23T11:50:06;19.20;99.90
26378;DHT22;14078;50.974;6.786;2023-04-23T11:52:33;19.40;99.90
26378;DHT22;14078;50.974;6.786;2023-04-23T11:55:01;19.40;99.90
26378;DHT22;14078;50.974;6.786;2023-04-23T11:57:28;19.50;99.90
26378;DHT22;14078;50.974;6.786;2023-04-23T11:59:55;19.50;99.90
26378;DHT22;14078;50.974;6.786;2023-04-23T12:02:23;19.50;99.90
26378;DHT22;14078;50.974;6.786;2023-04-23T12:04:50;19.40;99.90
26378;DHT22;14078;50.974;6.786;2023-04-23T12:07:17;19.40;99.90
26378;DHT22;14078;50.974;6.786;2023-04-23T12:09:44;19.40;99.90
26378;DHT22;14078;50.974;6.786;2023-04-23T12:12:11;19.40;99.90
26378;DHT22;14078;50.974;6.786;2023-04-23T12:14:37;19.40;99.90
26378;DHT22;14078;50.974;6.786;2023-04-23T12:17:08;19.40;99.90
26378;DHT22;14078;50.974;6.786;2023-04-23T12:19:36;19.40;99.90
26378;DHT22;14078;50.974;6.786;2023-04-23T12:22:02;19.30;99.90
26378;DHT22;14078;50.974;6.786;2023-04-23T12:24:29;19.40;99.90
26378;DHT22;14078;50.974;6.786;2023-04-23T12:26:56;19.40;99.90
26378;DHT22;14078;50.974;6.786;2023-04-23T12:29:24;19.30;99.90
26378;DHT22;14078;50.974;6.786;2023-04-23T12:31:52;19.50;99.90
26378;DHT22;14078;50.974;6.786;2023-04-23T12:34:19;19.40;99.90
26378;DHT22;14078;50.974;6.786;2023-04-23T12:36:47;19.30;99.90
26378;DHT22;14078;50.974;6.786;2023-04-23T12:39:19;19.20;99.90
26378;DHT22;14078;50.974;6.786;2023-04-23T12:41:45;19.20;99.90
26378;DHT22;14078;50.974;6.786;2023-04-23T12:44:12;19.20;99.90
26378;DHT22;14078;50.974;6.786;2023-04-23T12:46:39;19.20;99.90
26378;DHT22;14078;50.974;6.786;2023-04-23T12:49:05;19.20;99.90
26378;DHT22;14078;50.974;6.786;2023-04-23T12:51:32;19.30;99.90
26378;DHT22;14078;50.974;6.786;2023-04-23T12:53:59;19.20;99.90
26378;DHT22;14078;50.974;6.786;2023-04-23T12:56:26;19.30;99.90
26378;DHT22;14078;50.974;6.786;2023-04-23T12:58:52;19.40;99.90
26378;DHT22;14078;50.974;6.786;2023-04-23T13:01:19;19.40;99.90
26378;DHT22;14078;50.974;6.786;2023-04-23T13:03:46;19.40;99.90
26378;DHT22;14078;50.974;6.786;2023-04-23T13:06:12;19.30;99.90
26378;DHT22;14078;50.974;6.786;2023-04-23T13:08:39;19.40;99.90
26378;DHT22;14078;50.974;6.786;2023-04-23T13:11:07;19.50;99.90
26378;DHT22;14078;50.974;6.786;2023-04-23T13:13:33;19.40;99.90
26378;DHT22;14078;50.974;6.786;2023-04-23T13:16:00;19.50;99.90
26378;DHT22;14078;50.974;6.786;2023-04-23T13:18:26;19.60;99.90
26378;DHT22;14078;50.974;6.786;2023-04-23T13:20:53;19.60;99.90
26378;DHT22;14078;50.974;6.786;2023-04-23T13:23:19;19.50;99.90
26378;DHT22;14078;50.974;6.786;2023-04-23T13:25:46;19.50;99.90
26378;DHT22;14078;50.974;6.786;2023-04-23T13:28:14;19.40;99.90
26378;DHT22;14078;50.974;6.786;2023-04-23T13:30:40;19.50;99.90
26378;DHT22;14078;50.974;6.786;2023-04-23T13:33:07;19.40;99.90
26378;DHT22;14078;50.974;6.786;2023-04-23T13:35:33;19.40;99.90
26378;DHT22;14078;50.974;6.786;2023-04-23T13:38:01;19.30;99.90
26378;DHT22;14078;50.974;6.786;2023-04-23T13:40:28;19.40;99.90
26378;DHT22;14078;50.974;6.786;2023-04-23T13:42:55;19.50;99.90
26378;DHT22;14078;50.974;6.786;2023-04-23T13:45:24;19.60;99.90
26378;DHT22;14078;50.974;6.786;2023-04-23T13:47:51;19.40;99.90
26378;DHT22;14078;50.974;6.786;2023-04-23T13:50:17;19.30;99.90
26378;DHT22;14078;50.974;6.786;2023-04-23T13:52:44;19.20;99.90
26378;DHT22;14078;50.974;6.786;2023-04-23T13:55:10;19.20;99.90
26378;DHT22;14078;50.974;6.786;2023-04-23T13:57:37;19.00;99.90
26378;DHT22;14078;50.974;6.786;2023-04-23T14:00:04;18.90;99.90
26378;DHT22;14078;50.974;6.786;2023-04-23T14:02:31;18.80;99.90
26378;DHT22;14078;50.974;6.786;2023-04-23T14:04:58;18.60;99.90
26378;DHT22;14078;50.974;6.786;2023-04-23T14:07:27;18.50;99.90
26378;DHT22;14078;50.974;6.786;2023-04-23T14:09:54;18.50;99.90
26378;DHT22;14078;50.974;6.786;2023-04-23T14:12:21;18.50;99.90
26378;DHT22;14078;50.974;6.786;2023-04-23T14:14:48;18.40;99.90
26378;DHT22;14078;50.974;6.786;2023-04-23T14:17:15;18.30;99.90
26378;DHT22;14078;50.974;6.786;2023-04-23T14:19:43;18.30;99.90
26378;DHT22;14078;50.974;6.786;2023-04-23T14:22:09;18.30;99.90
26378;DHT22;14078;50.974;6.786;2023-04-23T14:24:37;18.30;99.90
26378;DHT22;14078;50.974;6.786;2023-04-23T14:27:04;18.30;99.90
26378;DHT22;14078;50.974;6.786;2023-04-23T14:29:33;18.30;99.90
26378;DHT22;14078;50.974;6.786;2023-04-23T14:32:00;18.10;99.90
26378;DHT22;14078;50.974;6.786;2023-04-23T14:34:26;18.20;99.90
26378;DHT22;14078;50.974;6.786;2023-04-23T14:36:55;18.20;99.90
26378;DHT22;14078;50.974;6.786;2023-04-23T14:39:21;18.10;99.90
26378;DHT22;14078;50.974;6.786;2023-04-23T14:41:49;18.10;99.90
26378;DHT22;14078;50.974;6.786;2023-04-23T14:44:16;17.90;99.90
26378;DHT22;14078;50.974;6.786;2023-04-23T14:46:42;17.80;99.90
26378;DHT22;14078;50.974;6.786;2023-04-23T14:49:10;17.70;99.90
26378;DHT22;14078;50.974;6.786;2023-04-23T14:51:36;17.60;99.90
26378;DHT22;14078;50.974;6.786;2023-04-23T14:54:04;17.50;99.90
26378;DHT22;14078;50.974;6.786;2023-04-23T14:56:31;17.40;99.90
26378;DHT22;14078;50.974;6.786;2023-04-23T14:58:57;17.30;99.90
26378;DHT22;14078;50.974;6.786;2023-04-23T15:01:24;17.30;99.90
26378;DHT22;14078;50.974;6.786;2023-04-23T15:03:51;17.20;99.90
26378;DHT22;14078;50.974;6.786;2023-04-23T15:06:17;16.90;1.00
26378;DHT22;14078;50.974;6.786;2023-04-23T15:08:44;16.70;99.90
26378;DHT22;14078;50.974;6.786;2023-04-23T15:11:12;16.50;99.90
26378;DHT22;14078;50.974;6.786;2023-04-23T15:13:42;16.30;1.00
26378;DHT22;14078;50.974;6.786;2023-04-23T15:16:17;16.30;1.00
26378;DHT22;14078;50.974;6.786;2023-04-23T15:18:44;16.30;1.00
26378;DHT22;14078;50.974;6.786;2023-04-23T15:21:10;16.20;99.90
26378;DHT22;14078;50.974;6.786;2023-04-23T15:23:37;16.00;99.90
26378;DHT22;14078;50.974;6.786;2023-04-23T15:26:05;16.10;99.90
26378;DHT22;14078;50.974;6.786;2023-04-23T15:28:33;16.10;1.00
26378;DHT22;14078;50.974;6.786;2023-04-23T15:31:00;16.00;99.90
26378;DHT22;14078;50.974;6.786;2023-04-23T15:33:26;15.80;1.00
26378;DHT22;14078;50.974;6.786;2023-04-23T15:35:53;15.70;1.00
26378;DHT22;14078;50.974;6.786;2023-04-23T15:38:20;15.40;1.00
26378;DHT22;14078;50.974;6.786;2023-04-23T15:40:47;15.20;1.00
26378;DHT22;14078;50.974;6.786;2023-04-23T15:43:14;15.00;41.50
26378;DHT22;14078;50.974;6.786;2023-04-23T15:45:42;14.90;18.70
26378;DHT22;14078;50.974;6.786;2023-04-23T15:48:12;14.80;50.50
26378;DHT22;14078;50.974;6.786;2023-04-23T15:50:39;14.60;96.70
26378;DHT22;14078;50.974;6.786;2023-04-23T15:53:06;14.40;99.90
26378;DHT22;14078;50.974;6.786;2023-04-23T15:55:33;14.20;99.90
26378;DHT22;14078;50.974;6.786;2023-04-23T15:57:59;14.10;99.90
26378;DHT22;14078;50.974;6.786;2023-04-23T16:00:27;14.00;99.90
26378;DHT22;14078;50.974;6.786;2023-04-23T16:02:56;14.00;99.90
26378;DHT22;14078;50.974;6.786;2023-04-23T16:05:22;14.00;99.90
26378;DHT22;14078;50.974;6.786;2023-04-23T16:07:49;13.90;99.90
26378;DHT22;14078;50.974;6.786;2023-04-23T16:10:16;13.80;99.90
26378;DHT22;14078;50.974;6.786;2023-04-23T16:12:43;13.70;99.90
26378;DHT22;14078;50.974;6.786;2023-04-23T16:15:10;13.60;99.90
26378;DHT22;14078;50.974;6.786;2023-04-23T16:17:36;13.70;99.90
26378;DHT22;14078;50.974;6.786;2023-04-23T16:20:05;13.70;99.90
26378;DHT22;14078;50.974;6.786;2023-04-23T16:22:32;13.60;99.90
26378;DHT22;14078;50.974;6.786;2023-04-23T16:24:58;13.50;99.90
26378;DHT22;14078;50.974;6.786;2023-04-23T16:27:25;13.40;99.90
26378;DHT22;14078;50.974;6.786;2023-04-23T16:29:51;13.30;99.90
26378;DHT22;14078;50.974;6.786;2023-04-23T16:32:18;13.10;99.90
26378;DHT22;14078;50.974;6.786;2023-04-23T16:34:44;12.80;99.90
26378;DHT22;14078;50.974;6.786;2023-04-23T16:37:12;12.70;99.90
26378;DHT22;14078;50.974;6.786;2023-04-23T16:39:40;12.60;99.90
26378;DHT22;14078;50.974;6.786;2023-04-23T16:42:07;12.60;99.90
26378;DHT22;14078;50.974;6.786;2023-04-23T16:44:33;12.60;99.90
26378;DHT22;14078;50.974;6.786;2023-04-23T16:47:00;12.50;99.90
26378;DHT22;14078;50.974;6.786;2023-04-23T16:49:26;12.50;99.90
26378;DHT22;14078;50.974;6.786;2023-04-23T16:51:53;12.60;99.90
26378;DHT22;14078;50.974;6.786;2023-04-23T16:54:21;12.60;99.90
26378;DHT22;14078;50.974;6.786;2023-04-23T16:56:48;12.60;99.90
26378;DHT22;14078;50.974;6.786;2023-04-23T16:59:14;12.60;99.90
26378;DHT22;14078;50.974;6.786;2023-04-23T17:01:41;12.70;99.90
26378;DHT22;14078;50.974;6.786;2023-04-23T17:04:08;12.70;99.90
26378;DHT22;14078;50.974;6.786;2023-04-23T17:06:34;12.70;99.90
26378;DHT22;14078;50.974;6.786;2023-04-23T17:09:01;12.70;99.90
26378;DHT22;14078;50.974;6.786;2023-04-23T17:11:30;12.70;99.90
26378;DHT22;14078;50.974;6.786;2023-04-23T17:13:56;12.70;99.90
26378;DHT22;14078;50.974;6.786;2023-04-23T17:16:23;12.70;99.90
26378;DHT22;14078;50.974;6.786;2023-04-23T17:18:50;12.70;99.90
26378;DHT22;14078;50.974;6.786;2023-04-23T17:21:17;12.80;99.90
26378;DHT22;14078;50.974;6.786;2023-04-23T17:23:44;12.70;99.90
26378;DHT22;14078;50.974;6.786;2023-04-23T17:26:10;12.80;99.90
26378;DHT22;14078;50.974;6.786;2023-04-23T17:28:38;12.80;99.90
26378;DHT22;14078;50.974;6.786;2023-04-23T17:31:05;12.70;99.90
26378;DHT22;14078;50.974;6.786;2023-04-23T17:33:32;12.70;99.90
26378;DHT22;14078;50.974;6.786;2023-04-23T17:35:59;12.80;99.90
26378;DHT22;14078;50.974;6.786;2023-04-23T17:38:26;12.80;99.90
26378;DHT22;14078;50.974;6.786;2023-04-23T17:40:53;12.80;99.90
26378;DHT22;14078;50.974;6.786;2023-04-23T17:43:20;12.70;99.90
26378;DHT22;14078;50.974;6.786;2023-04-23T17:45:48;12.70;99.90
26378;DHT22;14078;50.974;6.786;2023-04-23T17:48:14;12.80;99.90
26378;DHT22;14078;50.974;6.786;2023-04-23T17:50:41;12.80;99.90
26378;DHT22;14078;50.974;6.786;2023-04-23T17:53:07;12.80;99.90
26378;DHT22;14078;50.974;6.786;2023-04-23T17:55:34;12.80;99.90
26378;DHT22;14078;50.974;6.786;2023-04-23T17:58:00;12.80;99.90
26378;DHT22;14078;50.974;6.786;2023-04-23T18:00:32;12.80;99.90
26378;DHT22;14078;50.974;6.786;2023-04-23T18:02:59;12.90;99.90
26378;DHT22;14078;50.974;6.786;2023-04-23T18:05:26;12.90;99.90
26378;DHT22;14078;50.974;6.786;2023-04-23T18:07:53;12.90;99.90
26378;DHT22;14078;50.974;6.786;2023-04-23T18:10:19;12.90;99.90
26378;DHT22;14078;50.974;6.786;2023-04-23T18:12:46;12.90;99.90
26378;DHT22;14078;50.974;6.786;2023-04-23T18:15:12;12.90;99.90
26378;DHT22;14078;50.974;6.786;2023-04-23T18:17:39;12.80;99.90
26378;DHT22;14078;50.974;6.786;2023-04-23T18:20:07;12.80;99.90
26378;DHT22;14078;50.974;6.786;2023-04-23T18:22:34;12.80;99.90
26378;DHT22;14078;50.974;6.786;2023-04-23T18:25:01;12.80;99.90
26378;DHT22;14078;50.974;6.786;2023-04-23T18:27:28;12.80;99.90
26378;DHT22;14078;50.974;6.786;2023-04-23T18:29:55;12.80;99.90
26378;DHT22;14078;50.974;6.786;2023-04-23T18:32:23;12.80;99.90
26378;DHT22;14078;50.974;6.786;2023-04-23T18:34:50;12.80;99.90
26378;DHT22;14078;50.974;6.786;2023-04-23T18:37:30;12.80;99.90
26378;DHT22;14078;50.974;6.786;2023-04-23T18:39:57;12.80;99.90
26378;DHT22;14078;50.974;6.786;2023-04-23T18:42:23;12.70;99.90
26378;DHT22;14078;50.974;6.786;2023-04-23T18:44:50;12.80;99.90
26378;DHT22;14078;50.974;6.786;2023-04-23T18:47:16;12.70;99.90
26378;DHT22;14078;50.974;6.786;2023-04-23T18:49:44;12.80;99.90
26378;DHT22;14078;50.974;6.786;2023-04-23T18:52:11;12.80;99.90
26378;DHT22;14078;50.974;6.786;2023-04-23T18:54:39;12.80;99.90
26378;DHT22;14078;50.974;6.786;2023-04-23T18:57:06;12.80;99.90
26378;DHT22;14078;50.974;6.786;2023-04-23T18:59:32;12.80;99.90
26378;DHT22;14078;50.974;6.786;2023-04-23T19:02:01;12.80;99.90
26378;DHT22;14078;50.974;6.786;2023-04-23T19:04:29;12.90;99.90
26378;DHT22;14078;50.974;6.786;2023-04-23T19:06:55;12.80;99.90
26378;DHT22;14078;50.974;6.786;2023-04-23T19:09:22;12.80;99.90
26378;DHT22;14078;50.974;6.786;2023-04-23T19:11:50;12.70;99.90
26378;DHT22;14078;50.974;6.786;2023-04-23T19:14:16;12.70;99.90
26378;DHT22;14078;50.974;6.786;2023-04-23T19:16:43;12.60;99.90
26378;DHT22;14078;50.974;6.786;2023-04-23T19:19:10;12.70;99.90
26378;DHT22;14078;50.974;6.786;2023-04-23T19:21:36;12.70;99.90
26378;DHT22;14078;50.974;6.786;2023-04-23T19:24:03;12.60;99.90
26378;DHT22;14078;50.974;6.786;2023-04-23T19:26:30;12.60;99.90
26378;DHT22;14078;50.974;6.786;2023-04-23T19:28:57;12.50;99.90
26378;DHT22;14078;50.974;6.786;2023-04-23T19:31:24;12.40;99.90
26378;DHT22;14078;50.974;6.786;2023-04-23T19:33:51;12.40;99.90
26378;DHT22;14078;50.974;6.786;2023-04-23T19:36:17;12.40;99.90
26378;DHT22;14078;50.974;6.786;2023-04-23T19:38:44;12.40;99.90
26378;DHT22;14078;50.974;6.786;2023-04-23T19:41:11;12.40;99.90
26378;DHT22;14078;50.974;6.786;2023-04-23T19:43:37;12.30;99.90
26378;DHT22;14078;50.974;6.786;2023-04-23T19:46:05;12.30;99.90
26378;DHT22;14078;50.974;6.786;2023-04-23T19:48:32;12.20;99.90
26378;DHT22;14078;50.974;6.786;2023-04-23T19:50:59;12.20;99.90
26378;DHT22;14078;50.974;6.786;2023-04-23T19:53:25;12.40;99.90
26378;DHT22;14078;50.974;6.786;2023-04-23T19:55:52;12.30;99.90
26378;DHT22;14078;50.974;6.786;2023-04-23T19:58:18;12.30;99.90
26378;DHT22;14078;50.974;6.786;2023-04-23T20:00:45;12.20;99.90
26378;DHT22;14078;50.974;6.786;2023-04-23T20:03:13;12.20;99.90
26378;DHT22;14078;50.974;6.786;2023-04-23T20:05:39;12.30;99.90
26378;DHT22;14078;50.974;6.786;2023-04-23T20:08:08;12.30;99.90
26378;DHT22;14078;50.974;6.786;2023-04-23T20:10:39;12.20;99.90
26378;DHT22;14078;50.974;6.786;2023-04-23T20:13:06;12.20;99.90
26378;DHT22;14078;50.974;6.786;2023-04-23T20:15:32;12.20;99.90
26378;DHT22;14078;50.974;6.786;2023-04-23T20:17:59;12.20;99.90
26378;DHT22;14078;50.974;6.786;2023-04-23T20:20:27;12.20;99.90
26378;DHT22;14078;50.974;6.786;2023-04-23T20:22:53;12.30;99.90